Time;durP1;ratioP1;P1;durP2;ratioP2;P2;SDS_P1;SDS_P2;PMS_P1;PMS_P2;Temp;Humidity;BMP_temperature;BMP_pressure;BME280_temperature;BME280_humidity;BME280_pressure;Samples;Min_cycle;Max_cycle;Signal;HPM_P1;HPM_P2
2023/03/02 00:00:00;;;;;;;7.15;6.38;;;;;;;1.26;49.42;101822.81;691148;28;939;-86
2023/03/02 00:00:21;;;;;;;7.32;6.53;;;;;;;1.18;49.51;101808.41;690933;28;1104;-86
2023/03/02 00:00:44;;;;;;;7.40;6.57;;;;;;;1.15;49.39;101813.31;688291;28;1046;-86
2023/03/02 00:01:08;;;;;;;7.18;6.47;;;;;;;1.13;49.33;101812.25;688208;28;1373;-86
2023/03/02 00:02:02;;;;;;;7.00;6.30;;;;;;;1.21;49.85;101824.09;685498;28;1049;-83
2023/03/02 00:02:22;;;;;;;7.97;6.50;;;;;;;1.14;49.77;101811.53;685540;28;1234;-83
2023/03/02 00:02:43;;;;;;;7.57;6.10;;;;;;;1.11;49.90;101796.72;682784;29;1227;-83
2023/03/02 00:03:05;;;;;;;6.78;6.07;;;;;;;1.19;49.58;101816.25;685546;28;1300;-83
2023/03/02 00:03:27;;;;;;;7.25;6.22;;;;;;;1.21;49.34;101824.09;688278;28;1066;-83
2023/03/02 00:03:48;;;;;;;8.27;6.90;;;;;;;1.09;49.60;101803.38;685548;28;1383;-83
2023/03/02 00:04:13;;;;;;;8.50;6.70;;;;;;;1.13;49.43;101808.03;685553;28;980;-83
2023/03/02 00:04:44;;;;;;;8.40;6.50;;;;;;;1.12;49.56;101807.91;685524;28;1090;-83
2023/03/02 00:05:07;;;;;;;7.78;6.70;;;;;;;1.10;49.71;101809.44;685425;28;1233;-83
2023/03/02 00:05:28;;;;;;;7.63;6.80;;;;;;;1.07;49.70;101810.09;685441;28;1005;-83
2023/03/02 00:05:49;;;;;;;7.10;6.40;;;;;;;1.11;49.80;101811.25;688421;28;1098;-83
2023/03/02 00:06:10;;;;;;;7.50;6.45;;;;;;;1.15;49.57;101824.47;688301;28;1101;-83
2023/03/02 00:06:33;;;;;;;6.90;6.20;;;;;;;1.05;49.71;101802.22;690287;28;1053;-82
2023/03/02 00:07:00;;;;;;;6.85;6.15;;;;;;;1.05;49.66;101812.53;688232;28;911;-83
2023/03/02 00:07:30;;;;;;;6.80;6.10;;;;;;;1.11;49.76;101821.53;688104;28;1191;-84
2023/03/02 00:07:53;;;;;;;7.45;6.68;;;;;;;0.98;49.90;101805.09;688387;28;867;-83
2023/03/02 00:08:18;;;;;;;7.68;6.80;;;;;;;0.96;49.63;101796.31;688668;28;1082;-83
2023/03/02 00:08:39;;;;;;;8.90;7.25;;;;;;;1.02;49.79;101827.69;688018;28;1093;-83
2023/03/02 00:09:00;;;;;;;8.00;6.72;;;;;;;0.99;49.77;101814.59;688344;28;756;-83
2023/03/02 00:09:21;;;;;;;8.52;6.82;;;;;;;1.03;49.73;101829.50;688185;28;1970;-83
2023/03/02 00:09:44;;;;;;;7.85;6.30;;;;;;;1.03;49.73;101823.47;688128;28;1243;-83
2023/03/02 00:10:04;;;;;;;8.27;6.38;;;;;;;1.02;49.90;101827.69;685516;28;1380;-83
2023/03/02 00:10:25;;;;;;;7.45;6.30;;;;;;;0.95;49.71;101817.66;685662;28;1159;-83
2023/03/02 00:10:46;;;;;;;7.40;6.50;;;;;;;0.99;49.90;101827.47;688148;28;1236;-83
2023/03/02 00:11:06;;;;;;;7.30;6.50;;;;;;;0.88;49.98;101812.78;688165;28;1309;-83
2023/03/02 00:11:30;;;;;;;7.33;6.50;;;;;;;0.98;50.13;101823.09;690799;28;997;-83
2023/03/02 00:11:51;;;;;;;7.00;6.30;;;;;;;0.85;49.93;101802.25;685673;28;850;-83
2023/03/02 00:12:12;;;;;;;7.00;6.30;;;;;;;0.96;50.12;101823.72;682951;29;1143;-83
2023/03/02 00:12:34;;;;;;;7.38;6.58;;;;;;;0.90;50.13;101821.53;682691;29;1113;-83
2023/03/02 00:12:54;;;;;;;8.70;6.78;;;;;;;0.88;50.24;101813.69;685591;28;1202;-83
2023/03/02 00:13:15;;;;;;;8.40;6.55;;;;;;;0.84;49.90;101811.63;688294;28;999;-83
2023/03/02 00:13:37;;;;;;;8.95;6.22;;;;;;;0.85;50.39;101812.53;688023;28;1171;-83
2023/03/02 00:13:58;;;;;;;7.28;6.00;;;;;;;0.83;50.06;101809.81;688327;28;1143;-83
2023/03/02 00:14:18;;;;;;;7.22;5.90;;;;;;;0.83;50.19;101808.94;688223;28;1120;-83
2023/03/02 00:14:39;;;;;;;7.78;6.15;;;;;;;0.84;50.09;101808.16;685354;28;1158;-83
2023/03/02 00:15:00;;;;;;;8.03;6.37;;;;;;;0.88;49.92;101820.50;687923;28;1263;-83
2023/03/02 00:15:20;;;;;;;8.43;6.50;;;;;;;0.85;50.32;101816.00;685553;28;1105;-82
2023/03/02 00:15:41;;;;;;;7.20;6.37;;;;;;;0.87;49.85;101818.69;685409;28;1278;-83
2023/03/02 00:16:01;;;;;;;7.28;6.30;;;;;;;0.82;50.17;101813.16;688373;28;839;-83
2023/03/02 00:16:22;;;;;;;6.90;6.20;;;;;;;0.80;50.28;101812.16;685522;28;1257;-85
2023/03/02 00:16:43;;;;;;;6.88;6.20;;;;;;;0.83;50.25;101816.66;688109;28;1007;-85
2023/03/02 00:17:04;;;;;;;6.70;6.10;;;;;;;0.85;50.28;101820.25;688288;28;1057;-85
2023/03/02 00:17:27;;;;;;;6.68;6.07;;;;;;;0.78;49.94;101811.13;688241;28;1371;-85
2023/03/02 00:17:48;;;;;;;7.40;6.38;;;;;;;0.82;50.25;101813.16;688276;28;854;-85
2023/03/02 00:18:09;;;;;;;7.50;6.30;;;;;;;0.81;50.00;101814.81;688326;28;1107;-86
2023/03/02 00:18:29;;;;;;;6.97;5.88;;;;;;;0.81;50.12;101817.41;688053;28;1110;-85
2023/03/02 00:18:50;;;;;;;6.38;5.70;;;;;;;0.83;50.44;101819.22;688261;28;801;-85
2023/03/02 00:19:11;;;;;;;6.50;5.57;;;;;;;0.83;50.16;101819.22;688285;28;1273;-85
2023/03/02 00:19:31;;;;;;;7.05;6.10;;;;;;;0.73;50.21;101803.00;685305;28;1353;-85
2023/03/02 00:20:10;;;;;;;7.60;6.30;;;;;;;0.79;50.38;101813.81;683019;29;879;-85
2023/03/02 00:20:34;;;;;;;7.53;6.53;;;;;;;0.78;50.35;101811.13;685450;28;980;-85
2023/03/02 00:20:55;;;;;;;7.07;6.38;;;;;;;0.76;50.45;101811.00;686193;28;898;-85
2023/03/02 00:21:15;;;;;;;7.18;6.47;;;;;;;0.80;50.57;101815.59;689069;28;980;-85
2023/03/02 00:21:36;;;;;;;7.05;6.20;;;;;;;0.76;50.15;101812.66;688055;28;1153;-85
2023/03/02 00:21:57;;;;;;;7.07;6.10;;;;;;;0.67;50.34;101799.94;685651;28;1267;-85
2023/03/02 00:22:18;;;;;;;7.03;6.28;;;;;;;0.71;50.63;101807.13;688258;28;1217;-85
2023/03/02 00:22:42;;;;;;;7.78;7.00;;;;;;;0.69;50.00;101806.09;688058;28;1098;-85
2023/03/02 00:23:03;;;;;;;7.70;6.70;;;;;;;0.69;50.49;101810.31;685571;28;1330;-85
2023/03/02 00:23:24;;;;;;;8.18;6.40;;;;;;;0.64;50.25;101805.72;690936;28;1075;-85
2023/03/02 00:23:44;;;;;;;8.00;6.28;;;;;;;0.65;50.11;101810.06;688072;28;1354;-85
2023/03/02 00:24:05;;;;;;;7.50;6.40;;;;;;;0.72;50.32;101816.63;688349;28;1058;-85
2023/03/02 00:24:26;;;;;;;7.00;6.30;;;;;;;0.65;50.24;101815.22;688019;28;1343;-85
2023/03/02 00:24:46;;;;;;;6.85;6.25;;;;;;;0.61;50.49;101802.84;688216;28;1201;-85
2023/03/02 00:25:08;;;;;;;7.30;6.60;;;;;;;0.59;50.60;101799.28;685500;28;1159;-85
2023/03/02 00:25:29;;;;;;;7.45;6.70;;;;;;;0.65;50.56;101809.16;685488;28;1016;-85
2023/03/02 00:25:50;;;;;;;7.40;6.40;;;;;;;0.66;50.65;101816.13;685530;28;784;-85
2023/03/02 00:26:10;;;;;;;6.97;6.27;;;;;;;0.60;50.67;101802.75;688206;28;1299;-85
2023/03/02 00:26:36;;;;;;;7.60;6.53;;;;;;;0.61;50.60;101809.69;688031;28;1027;-85
2023/03/02 00:26:57;;;;;;;7.88;6.90;;;;;;;0.52;50.75;101800.44;685446;28;1336;-85
2023/03/02 00:27:17;;;;;;;7.83;6.87;;;;;;;0.62;50.50;101814.06;685563;28;1256;-85
2023/03/02 00:27:39;;;;;;;7.87;6.80;;;;;;;0.62;50.78;101824.31;685382;28;1122;-85
2023/03/02 00:28:00;;;;;;;7.63;6.80;;;;;;;0.57;50.68;101815.31;685641;28;1462;-85
2023/03/02 00:28:20;;;;;;;8.18;6.88;;;;;;;0.51;50.51;101803.75;685532;28;1484;-85
2023/03/02 00:28:41;;;;;;;7.53;6.57;;;;;;;0.61;50.69;101822.53;685477;28;1079;-85
2023/03/02 00:29:02;;;;;;;7.53;6.60;;;;;;;0.52;50.63;101803.00;688177;28;1182;-84
2023/03/02 00:29:23;;;;;;;6.85;6.18;;;;;;;0.55;50.78;101811.72;685551;28;1911;-83
2023/03/02 00:29:44;;;;;;;7.03;6.32;;;;;;;0.53;50.64;101809.94;688084;28;1273;-83
2023/03/02 00:30:06;;;;;;;7.00;6.30;;;;;;;0.52;50.82;101813.28;682840;29;1178;-83
2023/03/02 00:30:26;;;;;;;7.35;6.60;;;;;;;0.56;50.67;101816.09;685413;28;1331;-84
2023/03/02 00:30:47;;;;;;;7.53;6.43;;;;;;;0.49;50.38;101807.84;688229;28;849;-83
2023/03/02 00:31:08;;;;;;;7.18;6.30;;;;;;;0.51;50.87;101815.69;688278;28;1011;-83
2023/03/02 00:31:29;;;;;;;7.60;6.53;;;;;;;0.49;50.70;101807.84;685445;28;1217;-83
2023/03/02 00:31:49;;;;;;;7.53;6.72;;;;;;;0.53;50.81;101814.16;682759;28;1182;-83
2023/03/02 00:32:16;;;;;;;7.75;6.97;;;;;;;0.55;51.01;101822.00;685478;28;1333;-84
2023/03/02 00:32:37;;;;;;;7.32;6.63;;;;;;;0.61;50.66;101830.25;685390;28;1371;-85
2023/03/02 00:32:58;;;;;;;7.40;6.50;;;;;;;0.57;50.65;101817.88;688201;28;890;-83
2023/03/02 00:33:19;;;;;;;7.40;6.43;;;;;;;0.58;50.84;101823.16;685581;28;1194;-84
2023/03/02 00:33:40;;;;;;;7.13;6.35;;;;;;;0.53;51.05;101809.94;685404;28;1188;-83
2023/03/02 00:34:00;;;;;;;6.93;6.22;;;;;;;0.38;51.17;101816.31;685602;28;1197;-83
2023/03/02 00:34:21;;;;;;;7.00;6.30;;;;;;;0.52;50.90;101826.13;688313;28;1040;-83
2023/03/02 00:34:41;;;;;;;7.88;6.57;;;;;;;0.53;50.77;101827.91;685439;28;1098;-83
2023/03/02 00:35:03;;;;;;;7.90;6.57;;;;;;;0.57;50.79;101825.59;685571;28;1140;-83
2023/03/02 00:35:25;;;;;;;8.00;6.70;;;;;;;0.46;51.08;101817.88;682851;28;1257;-83
2023/03/02 00:35:46;;;;;;;8.23;6.85;;;;;;;0.47;50.70;101814.53;685527;28;850;-83
2023/03/02 00:36:14;;;;;;;8.20;6.87;;;;;;;0.56;51.01;101828.94;685634;28;1013;-83
2023/03/02 00:36:35;;;;;;;8.07;6.85;;;;;;;0.42;50.87;101815.81;682681;28;1377;-83
2023/03/02 00:36:56;;;;;;;7.47;6.32;;;;;;;0.31;51.43;101821.69;685487;28;1232;-84
2023/03/02 00:37:17;;;;;;;7.63;6.40;;;;;;;0.25;51.54;101824.63;685441;28;1297;-83
2023/03/02 00:37:38;;;;;;;8.13;6.50;;;;;;;0.21;51.54;101820.91;685429;28;1076;-83
2023/03/02 00:37:58;;;;;;;8.80;6.90;;;;;;;0.20;51.67;101823.31;685595;28;1198;-83
2023/03/02 00:38:19;;;;;;;9.20;7.20;;;;;;;0.18;51.62;101818.03;688231;28;1277;-83
2023/03/02 00:38:39;;;;;;;8.27;7.13;;;;;;;0.20;52.05;101824.22;688160;28;1120;-83
2023/03/02 00:39:00;;;;;;;7.70;6.90;;;;;;;0.18;52.12;101824.84;685624;28;756;-83
2023/03/02 00:39:21;;;;;;;7.87;6.90;;;;;;;0.18;51.79;101824.84;688198;28;1172;-83
2023/03/02 00:39:41;;;;;;;8.90;6.90;;;;;;;0.20;51.97;101834.50;685418;28;1054;-83
2023/03/02 00:40:05;;;;;;;9.80;7.07;;;;;;;0.11;51.99;101814.03;685523;28;1078;-83
2023/03/02 00:40:26;;;;;;;10.00;6.95;;;;;;;0.14;51.71;101828.81;685514;28;1318;-83
2023/03/02 00:40:48;;;;;;;9.00;6.80;;;;;;;0.14;52.07;101823.69;685472;28;1228;-83
2023/03/02 00:41:11;;;;;;;8.27;6.60;;;;;;;0.08;52.18;101821.50;685546;28;1180;-83
2023/03/02 00:41:31;;;;;;;7.97;6.78;;;;;;;0.06;52.12;101817.88;693448;28;1331;-83
2023/03/02 00:41:52;;;;;;;9.00;6.97;;;;;;;0.10;52.10;101829.31;691105;28;830;-83
2023/03/02 00:42:13;;;;;;;8.43;6.80;;;;;;;0.07;52.01;101819.69;688075;28;1279;-83
2023/03/02 00:42:33;;;;;;;8.20;6.85;;;;;;;0.14;52.21;101825.34;687957;28;1445;-83
2023/03/02 00:42:54;;;;;;;7.23;6.50;;;;;;;0.13;52.33;101829.59;688292;28;744;-83
2023/03/02 00:43:15;;;;;;;7.90;6.45;;;;;;;0.19;52.48;101831.78;682911;29;1159;-83
2023/03/02 00:43:36;;;;;;;8.07;6.50;;;;;;;0.07;52.34;101811.09;685472;28;1058;-83
2023/03/02 00:43:58;;;;;;;7.80;6.50;;;;;;;0.17;52.15;101826.50;688315;28;881;-83
2023/03/02 00:44:18;;;;;;;6.90;6.20;;;;;;;0.11;52.11;101823.44;688169;28;1316;-83
2023/03/02 00:44:39;;;;;;;6.55;5.90;;;;;;;0.08;51.72;101818.94;685393;28;1218;-83
2023/03/02 00:45:00;;;;;;;6.75;6.05;;;;;;;0.15;52.32;101833.19;682984;29;855;-84
2023/03/02 00:45:20;;;;;;;7.03;6.18;;;;;;;0.18;52.34;101838.56;685821;28;1260;-83
2023/03/02 00:45:41;;;;;;;8.02;6.47;;;;;;;0.10;52.27;101814.81;685257;28;1449;-83
2023/03/02 00:46:13;;;;;;;8.47;6.47;;;;;;;0.21;51.99;101833.72;685575;28;1288;-83
2023/03/02 00:46:33;;;;;;;8.48;6.30;;;;;;;0.15;52.16;101824.59;685376;28;1015;-83
2023/03/02 00:46:54;;;;;;;7.20;6.00;;;;;;;0.20;52.12;101815.63;688253;28;784;-83
2023/03/02 00:47:14;;;;;;;7.90;5.87;;;;;;;0.40;51.79;101819.91;690976;28;1092;-83
2023/03/02 00:47:36;;;;;;;7.07;5.47;;;;;;;0.58;51.44;101824.81;690823;28;1108;-83
2023/03/02 00:47:57;;;;;;;7.50;5.50;;;;;;;0.66;51.16;101826.41;685498;28;1345;-83
2023/03/02 00:48:18;;;;;;;8.27;5.70;;;;;;;0.64;51.09;101815.06;688213;28;1298;-83
2023/03/02 00:48:38;;;;;;;8.00;5.63;;;;;;;0.71;50.55;101825.09;688084;28;1109;-83
2023/03/02 00:48:59;;;;;;;8.03;5.70;;;;;;;0.76;50.60;101828.06;688165;28;1202;-84
2023/03/02 00:49:20;;;;;;;7.67;5.63;;;;;;;0.75;50.50;101821.13;685608;28;1139;-83
2023/03/02 00:49:40;;;;;;;8.52;5.70;;;;;;;0.79;50.60;101821.50;688110;28;1919;-84
2023/03/02 00:50:01;;;;;;;9.00;5.70;;;;;;;0.83;50.19;101830.38;688261;28;1229;-84
2023/03/02 00:50:22;;;;;;;8.43;5.70;;;;;;;0.77;50.15;101814.44;690934;28;1213;-83
2023/03/02 00:50:42;;;;;;;7.60;5.80;;;;;;;0.83;50.03;101826.94;690877;28;1124;-83
2023/03/02 00:51:04;;;;;;;7.35;5.82;;;;;;;0.77;49.85;101809.31;691092;28;1117;-83
2023/03/02 00:51:25;;;;;;;7.80;6.00;;;;;;;0.77;50.07;101815.34;693588;28;1257;-83
2023/03/02 00:51:46;;;;;;;7.73;5.90;;;;;;;0.75;50.34;101811.75;685520;28;1117;-83
2023/03/02 00:52:06;;;;;;;7.95;5.75;;;;;;;0.69;50.10;101806.09;682955;28;1258;-84
2023/03/02 00:52:31;;;;;;;8.80;6.00;;;;;;;0.75;50.23;101821.13;690788;28;1165;-83
2023/03/02 00:52:51;;;;;;;8.85;6.18;;;;;;;0.74;50.33;101814.19;688345;28;1363;-83
2023/03/02 00:53:12;;;;;;;8.60;6.10;;;;;;;0.74;50.33;101815.09;688220;28;1155;-84
2023/03/02 00:53:34;;;;;;;7.97;5.90;;;;;;;0.76;50.09;101817.78;688003;28;1164;-84
2023/03/02 00:53:54;;;;;;;7.93;5.95;;;;;;;0.88;50.10;101820.50;685600;28;902;-84
2023/03/02 00:54:15;;;;;;;7.75;5.75;;;;;;;0.82;50.30;101820.88;685625;28;1110;-83
2023/03/02 00:54:35;;;;;;;10.18;6.07;;;;;;;0.84;50.05;101823.59;685492;28;1021;-84
2023/03/02 00:54:56;;;;;;;9.53;5.90;;;;;;;0.83;50.12;101817.53;685731;28;831;-84
2023/03/02 00:55:17;;;;;;;9.93;6.10;;;;;;;0.78;50.16;101811.13;688289;28;1206;-84
2023/03/02 00:55:38;;;;;;;7.93;5.80;;;;;;;0.88;50.11;101829.13;688487;28;1177;-84
2023/03/02 00:56:00;;;;;;;8.23;5.90;;;;;;;0.76;50.15;101808.41;685695;28;819;-83
2023/03/02 00:56:20;;;;;;;7.35;5.45;;;;;;;0.84;50.19;101826.16;685599;28;1130;-83
2023/03/02 00:56:44;;;;;;;7.15;5.30;;;;;;;0.88;49.89;101825.63;687963;28;1358;-83
2023/03/02 00:57:05;;;;;;;7.90;6.20;;;;;;;0.90;50.27;101829.25;688306;28;1071;-84
2023/03/02 00:57:26;;;;;;;7.32;5.90;;;;;;;0.94;50.12;101828.72;680093;29;1311;-83
2023/03/02 00:57:55;;;;;;;7.32;5.97;;;;;;;0.94;49.74;101828.72;685571;28;1219;-84
2023/03/02 00:58:21;;;;;;;8.23;6.10;;;;;;;0.96;50.03;101826.28;685657;28;1149;-84
2023/03/02 00:58:42;;;;;;;10.27;6.50;;;;;;;0.95;50.16;101825.38;686907;28;1308;-83
2023/03/02 00:59:25;;;;;;;9.63;6.30;;;;;;;0.88;49.65;101823.06;685097;29;1341;-83
2023/03/02 00:59:48;;;;;;;8.20;5.80;;;;;;;0.97;49.97;101831.53;685590;29;851;-83
2023/03/02 01:00:23;;;;;;;8.80;6.30;;;;;;;0.93;49.91;101826.94;690939;28;1263;-83
2023/03/02 01:00:44;;;;;;;9.95;6.38;;;;;;;0.81;49.94;101812.25;689276;28;1040;-84
2023/03/02 01:01:10;;;;;;;10.37;6.03;;;;;;;0.91;50.32;101821.66;687119;28;1141;-83
2023/03/02 01:01:33;;;;;;;9.77;5.75;;;;;;;0.92;50.31;101820.88;690520;28;1246;-83
2023/03/02 01:01:58;;;;;;;7.78;5.70;;;;;;;0.89;50.03;101815.50;687769;28;1285;-83
2023/03/02 01:02:21;;;;;;;7.50;5.65;;;;;;;0.96;49.96;101827.19;688319;28;1142;-82
2023/03/02 01:02:42;;;;;;;8.02;5.80;;;;;;;0.98;49.71;101825.66;688594;28;1237;-82
2023/03/02 01:03:05;;;;;;;7.95;5.78;;;;;;;0.92;49.78;101818.31;693828;28;1221;-83
2023/03/02 01:03:25;;;;;;;8.33;6.00;;;;;;;0.88;49.70;101812.78;693914;28;1181;-83
2023/03/02 01:03:46;;;;;;;8.38;5.60;;;;;;;0.89;49.79;101812.00;691310;28;938;-83
2023/03/02 01:04:07;;;;;;;8.38;5.60;;;;;;;0.89;49.90;101812.91;691157;28;1384;-82
2023/03/02 01:04:34;;;;;;;7.93;5.80;;;;;;;0.93;49.81;101826.94;691161;28;1288;-83
2023/03/02 01:04:55;;;;;;;8.57;6.20;;;;;;;0.90;49.96;101821.53;688411;28;939;-82
2023/03/02 01:05:16;;;;;;;9.80;6.28;;;;;;;0.94;49.92;101816.78;691232;28;1225;-83
2023/03/02 01:05:37;;;;;;;9.38;6.30;;;;;;;1.03;49.83;101831.19;691285;28;1141;-83
2023/03/02 01:05:57;;;;;;;8.75;6.05;;;;;;;1.04;49.87;101823.56;687144;28;1044;-84
2023/03/02 01:06:20;;;;;;;7.70;5.90;;;;;;;1.25;49.37;101831.28;685476;29;1222;-84
2023/03/02 01:06:46;;;;;;;7.40;5.70;;;;;;;1.13;49.16;101815.75;688141;28;1411;-83
2023/03/02 01:07:10;;;;;;;9.20;6.00;;;;;;;1.13;49.50;101827.69;688490;28;1222;-84
2023/03/02 01:07:36;;;;;;;8.43;5.70;;;;;;;0.95;49.69;101812.53;690179;28;1228;-84
2023/03/02 01:07:58;;;;;;;7.75;5.60;;;;;;;1.02;49.53;101825.13;685927;28;864;-82
2023/03/02 01:08:18;;;;;;;7.30;5.40;;;;;;;0.96;49.75;101816.91;690995;28;1142;-83
2023/03/02 01:08:39;;;;;;;8.33;5.70;;;;;;;1.01;49.51;101814.72;690668;28;1133;-83
2023/03/02 01:08:59;;;;;;;8.13;5.68;;;;;;;1.00;49.71;101824.09;691109;28;1148;-83
2023/03/02 01:09:20;;;;;;;8.80;5.90;;;;;;;0.97;49.73;101821.25;690857;28;1180;-84
2023/03/02 01:09:44;;;;;;;8.38;5.80;;;;;;;1.00;49.81;101829.25;690491;28;1962;-84
2023/03/02 01:10:05;;;;;;;8.75;5.93;;;;;;;0.92;49.46;101820.00;688046;28;1036;-85
2023/03/02 01:10:25;;;;;;;8.15;5.80;;;;;;;0.93;49.63;101819.22;690902;28;933;-84
2023/03/02 01:10:46;;;;;;;7.53;5.60;;;;;;;0.91;49.81;101823.34;693410;28;756;-85
2023/03/02 01:11:18;;;;;;;8.00;5.80;;;;;;;0.87;49.67;101813.56;690836;28;1106;-84
2023/03/02 01:11:39;;;;;;;9.57;5.82;;;;;;;0.86;49.75;101815.25;690414;28;1340;-85
2023/03/02 01:12:01;;;;;;;9.15;5.78;;;;;;;0.89;49.84;101815.50;685649;29;1001;-84
2023/03/02 01:12:21;;;;;;;9.98;6.00;;;;;;;0.89;49.85;101812.00;690737;28;1125;-86
2023/03/02 01:12:42;;;;;;;9.00;5.77;;;;;;;0.84;49.65;101806.47;688055;28;1066;-85
2023/03/02 01:13:04;;;;;;;8.70;5.80;;;;;;;0.85;49.72;101807.41;696506;28;1155;-86
2023/03/02 01:13:25;;;;;;;8.48;5.97;;;;;;;0.90;49.76;101811.25;696134;28;1033;-86
2023/03/02 01:13:46;;;;;;;9.27;6.13;;;;;;;0.85;49.89;101807.41;696196;28;972;-86
2023/03/02 01:14:07;;;;;;;10.00;6.10;;;;;;;0.91;49.85;101807.91;690922;28;1207;-86
2023/03/02 01:14:28;;;;;;;8.83;5.80;;;;;;;0.84;49.75;101805.59;693284;28;1048;-84
2023/03/02 01:14:49;;;;;;;8.38;6.00;;;;;;;0.92;49.97;101820.00;693632;28;869;-84
2023/03/02 01:15:10;;;;;;;8.25;6.30;;;;;;;0.88;49.85;101815.34;690828;28;1152;-85
2023/03/02 01:15:33;;;;;;;7.40;6.00;;;;;;;0.91;49.72;101813.06;693274;28;1230;-85
2023/03/02 01:16:01;;;;;;;7.85;6.03;;;;;;;0.98;50.03;101823.09;691079;28;890;-87
2023/03/02 01:16:21;;;;;;;8.00;5.80;;;;;;;0.91;49.91;101816.50;688718;28;958;-87
2023/03/02 01:16:42;;;;;;;8.27;6.07;;;;;;;0.91;49.87;101810.50;685131;28;1110;-86
2023/03/02 01:17:04;;;;;;;8.30;5.95;;;;;;;0.91;49.83;101820.78;686317;28;1381;-85
2023/03/02 01:17:25;;;;;;;9.23;6.32;;;;;;;0.92;49.96;101812.28;686056;28;1500;-86
2023/03/02 01:17:46;;;;;;;9.32;6.30;;;;;;;0.86;49.74;101802.41;685860;28;1123;-85
2023/03/02 01:18:07;;;;;;;8.80;6.25;;;;;;;0.88;49.88;101800.84;683656;29;1135;-85
2023/03/02 01:18:28;;;;;;;7.78;6.07;;;;;;;0.91;49.78;101803.66;685905;28;1441;-86
2023/03/02 01:18:48;;;;;;;8.02;6.07;;;;;;;0.98;49.87;101819.59;691517;28;748;-86
2023/03/02 01:19:09;;;;;;;7.83;6.10;;;;;;;0.97;49.43;101812.66;686005;28;1216;-85
2023/03/02 01:19:30;;;;;;;8.48;6.03;;;;;;;0.89;49.76;101796.59;688514;28;1139;-86
2023/03/02 01:19:52;;;;;;;7.97;5.93;;;;;;;0.96;49.50;101821.16;688849;28;835;-85
2023/03/02 01:20:13;;;;;;;8.15;5.95;;;;;;;0.90;49.48;101808.69;685971;28;1293;-85
2023/03/02 01:20:36;;;;;;;8.75;5.97;;;;;;;0.90;49.93;101801.88;685938;28;1113;-85
2023/03/02 01:21:05;;;;;;;8.50;5.80;;;;;;;0.89;49.86;101794.94;686102;28;1153;-86
2023/03/02 01:21:26;;;;;;;8.27;5.95;;;;;;;0.91;49.60;101793.38;688986;28;1079;-86
2023/03/02 01:21:46;;;;;;;7.60;5.80;;;;;;;1.02;49.75;101808.81;688747;28;1224;-86
2023/03/02 01:22:07;;;;;;;10.75;6.20;;;;;;;0.91;49.49;101787.34;685971;28;1301;-86
2023/03/02 01:22:28;;;;;;;11.95;6.40;;;;;;;0.94;49.64;101797.88;685982;28;1101;-85
2023/03/02 01:22:48;;;;;;;12.77;6.70;;;;;;;0.98;49.74;101799.94;688745;28;839;-86
2023/03/02 01:23:09;;;;;;;8.47;5.93;;;;;;;0.95;49.68;101797.09;688680;28;1210;-85
2023/03/02 01:23:30;;;;;;;7.68;5.70;;;;;;;0.96;49.77;101801.47;688592;28;1320;-86
2023/03/02 01:23:50;;;;;;;7.82;5.82;;;;;;;0.97;49.56;101803.25;683385;29;1461;-86
2023/03/02 01:24:11;;;;;;;9.10;6.43;;;;;;;0.92;49.43;101794.28;685977;28;1165;-85
2023/03/02 01:24:32;;;;;;;8.93;6.40;;;;;;;1.04;49.64;101810.72;691044;28;1306;-85
2023/03/02 01:24:53;;;;;;;8.45;6.18;;;;;;;0.92;49.72;101794.28;688961;28;1375;-85
2023/03/02 01:25:13;;;;;;;8.23;6.07;;;;;;;0.97;49.50;101805.84;688742;28;1025;-86
2023/03/02 01:25:35;;;;;;;7.82;5.85;;;;;;;0.96;49.59;101800.59;688470;28;1242;-86
2023/03/02 01:25:55;;;;;;;7.97;5.77;;;;;;;1.01;49.81;101805.34;686090;28;1244;-85
2023/03/02 01:26:16;;;;;;;7.28;5.60;;;;;;;0.99;49.44;101803.41;686054;28;1439;-86
2023/03/02 01:26:37;;;;;;;7.75;5.50;;;;;;;0.97;49.38;101798.13;688400;28;1086;-86
2023/03/02 01:26:58;;;;;;;7.28;5.38;;;;;;;0.94;49.70;101806.50;688604;28;832;-85
2023/03/02 01:27:19;;;;;;;9.52;5.68;;;;;;;0.95;49.79;101794.53;688698;28;1243;-86
2023/03/02 01:27:41;;;;;;;10.02;5.93;;;;;;;0.95;49.51;101786.81;688169;28;1292;-85
2023/03/02 01:28:02;;;;;;;9.32;6.03;;;;;;;1.02;49.38;101793.41;686118;28;887;-85
2023/03/02 01:28:23;;;;;;;8.52;5.80;;;;;;;1.03;49.44;101796.06;688663;28;1117;-85
2023/03/02 01:28:43;;;;;;;8.23;5.60;;;;;;;1.07;49.42;101805.84;688623;28;1025;-86
2023/03/02 01:29:04;;;;;;;8.55;5.80;;;;;;;0.99;49.33;101791.47;685911;28;1177;-85
2023/03/02 01:29:25;;;;;;;8.73;6.00;;;;;;;0.98;49.31;101791.31;685950;28;1911;-85
2023/03/02 01:29:45;;;;;;;7.80;6.17;;;;;;;0.99;49.37;101791.47;688610;28;1461;-85
2023/03/02 01:30:06;;;;;;;7.60;5.97;;;;;;;1.02;49.37;101795.97;685882;28;1209;-85
2023/03/02 01:30:27;;;;;;;7.18;5.70;;;;;;;1.04;49.41;101800.44;683247;28;1290;-85
2023/03/02 01:30:47;;;;;;;7.43;5.45;;;;;;;1.01;49.57;101794.13;688586;28;1073;-85
2023/03/02 01:31:08;;;;;;;7.93;5.60;;;;;;;1.05;49.27;101794.53;688543;28;1191;-86
2023/03/02 01:31:29;;;;;;;8.37;5.70;;;;;;;1.00;49.58;101782.97;688522;28;1134;-85
2023/03/02 01:31:50;;;;;;;8.70;5.80;;;;;;;1.01;49.24;101789.00;691333;28;1151;-85
2023/03/02 01:32:11;;;;;;;8.13;5.67;;;;;;;1.05;49.17;101791.94;694105;28;1202;-86
2023/03/02 01:32:31;;;;;;;8.03;5.70;;;;;;;0.98;49.51;101784.53;685809;28;1266;-85
2023/03/02 01:32:52;;;;;;;7.80;5.80;;;;;;;1.00;49.24;101787.22;691358;28;1285;-85
2023/03/02 01:33:13;;;;;;;9.00;6.05;;;;;;;1.01;49.36;101795.06;688715;28;1080;-85
2023/03/02 01:33:33;;;;;;;10.23;6.22;;;;;;;1.02;49.37;101788.25;688483;28;1112;-85
2023/03/02 01:33:54;;;;;;;9.50;5.80;;;;;;;1.01;49.63;101787.34;688714;28;933;-85
2023/03/02 01:34:15;;;;;;;8.68;5.70;;;;;;;1.03;49.25;101792.63;691224;28;1272;-85
2023/03/02 01:34:36;;;;;;;7.13;5.53;;;;;;;1.00;49.43;101788.13;691148;28;1086;-86
2023/03/02 01:34:56;;;;;;;7.60;5.70;;;;;;;1.06;49.40;101806.63;688707;28;1097;-86
2023/03/02 01:35:17;;;;;;;7.38;5.70;;;;;;;1.04;49.30;101797.88;685937;28;1363;-85
2023/03/02 01:35:38;;;;;;;7.10;5.68;;;;;;;1.05;49.49;101791.94;685844;28;1077;-86
2023/03/02 01:35:58;;;;;;;6.63;5.70;;;;;;;1.08;49.31;101797.38;686017;28;1269;-86
2023/03/02 01:36:20;;;;;;;7.57;6.00;;;;;;;1.08;49.35;101792.22;688501;28;1189;-85
2023/03/02 01:36:45;;;;;;;9.38;6.00;;;;;;;1.12;49.24;101795.94;691134;28;1256;-86
2023/03/02 01:37:05;;;;;;;9.48;5.68;;;;;;;1.13;49.45;101804.53;688730;28;1103;-85
2023/03/02 01:37:26;;;;;;;9.40;5.80;;;;;;;1.16;48.99;101809.97;686022;28;1163;-85
2023/03/02 01:37:46;;;;;;;8.45;5.88;;;;;;;1.12;48.86;101797.63;688643;28;771;-85
2023/03/02 01:38:07;;;;;;;9.02;5.88;;;;;;;1.07;49.00;101790.44;688642;28;1196;-85
2023/03/02 01:38:28;;;;;;;8.13;5.50;;;;;;;1.02;49.05;101786.56;691248;28;1263;-85
2023/03/02 01:38:49;;;;;;;9.00;5.78;;;;;;;1.04;49.01;101790.16;691316;28;1088;-85
2023/03/02 01:39:14;;;;;;;9.50;5.90;;;;;;;0.96;49.49;101780.91;691318;28;1287;-85
2023/03/02 01:39:35;;;;;;;10.98;6.20;;;;;;;1.09;49.40;101800.81;691194;28;1075;-85
2023/03/02 01:39:55;;;;;;;8.90;5.83;;;;;;;1.10;49.23;101794.03;688709;28;829;-85
2023/03/02 01:40:16;;;;;;;9.43;5.88;;;;;;;1.04;49.30;101791.84;688610;28;1155;-86
2023/03/02 01:40:37;;;;;;;9.70;6.20;;;;;;;1.16;49.14;101802.25;688500;28;1169;-86
2023/03/02 01:40:57;;;;;;;9.48;6.35;;;;;;;1.11;49.13;101793.25;685902;28;1338;-85
2023/03/02 01:41:18;;;;;;;8.57;6.20;;;;;;;1.09;49.01;101787.97;686027;28;1215;-86
2023/03/02 01:41:38;;;;;;;8.55;5.85;;;;;;;1.07;48.96;101785.28;688473;28;1117;-85
2023/03/02 01:41:59;;;;;;;8.93;5.53;;;;;;;1.06;49.27;101795.44;691370;28;1341;-86
2023/03/02 01:42:19;;;;;;;9.50;5.80;;;;;;;1.12;49.03;101797.63;685839;28;1235;-85
2023/03/02 01:42:49;;;;;;;9.20;6.25;;;;;;;1.12;49.32;101797.63;680484;28;1236;-85
2023/03/02 01:43:13;;;;;;;10.35;6.53;;;;;;;1.21;49.39;101806.09;685957;28;1166;-85
2023/03/02 01:43:34;;;;;;;10.90;6.30;;;;;;;1.10;49.31;101788.88;688566;28;1108;-86
2023/03/02 01:43:54;;;;;;;10.40;6.05;;;;;;;1.08;49.23;101784.50;688747;28;744;-85
2023/03/02 01:45:03;;;;;;;10.53;6.20;;;;;;;1.30;49.06;101800.81;685949;28;1266;-86
2023/03/02 01:45:45;;;;;;;7.22;5.35;;;;;;;1.33;48.62;101808.75;685741;28;1125;-85
2023/03/02 01:46:26;;;;;;;10.02;6.05;;;;;;;1.19;48.58;101782.84;685813;28;1032;-85
2023/03/02 01:46:49;;;;;;;8.45;5.78;;;;;;;1.17;48.82;101786.94;688399;28;1529;-85